Suula — OJKZ — position and weather

sailwx.info

Track history (hours):
 
Tides and Currents Weather Stations Pressure Air Temp Water Temp Dewpoint Dewpoint Depression Visibility Wind Speed Wind Dir Waves Ship Positions

Suula

Last reported at 2015-Mar-04 11:33 UTC. Time now 2015-Mar-06 02:50 UTC.
Position N 59°32' E 021°20'.

Length 140 m; draft 6.5 m.

Type: Tanker. MMSI: 230956996.

Date/timePositionNaut miles runAvg speedWind from/ knotsBaromVisibWave heightAir tempDewpointWater temp
2015-Mar-04 11:33N 59°32' E 021°20'5814.4
2015-Mar-04 07:33N 59°38' E 023°13'1414.4
2015-Mar-04 06:33N 59°42' E 023°40'1614.3
2015-Mar-04 05:27N 59°46' E 024°11'1414.5
2015-Mar-04 04:29N 59°49' E 024°38'6 0.1
2015-Mar-02 09:31N 59°46' E 024°48'1313.8
2015-Mar-02 08:33N 59°39' E 024°25'86 3.7
2015-Mar-01 09:29N 59°32' E 021°36'1213.0
2015-Mar-01 08:34N 59°41' E 021°20'1212.0
2015-Mar-01 07:33N 59°52' E 021°29'6 0.1
2015-Feb-27 12:04N 59°55' E 021°38'815.7
2015-Feb-27 11:34N 59°51' E 021°24'1313.0
2015-Feb-27 10:33N 59°38' E 021°26'1313.0
2015-Feb-27 09:33N 59°32' E 021°49'4414.7
2015-Feb-27 06:33N 59°39' E 023°15'1514.7
2015-Feb-27 05:33N 59°42' E 023°43'1814.8
2015-Feb-27 04:20N 59°47' E 024°18'1214.7
2015-Feb-27 03:33N 59°49' E 024°40'35 1.5
2015-Feb-26 04:23N 60°10' E 025°36'1214.1
2015-Feb-26 03:30N 59°58' E 025°28'2714.1
2015-Feb-26 01:33N 59°45' E 024°40'2114.3
2015-Feb-26 00:03N 59°40' E 023°59'814.7
2015-Feb-25 23:32N 59°38' E 023°45'1815.1
2015-Feb-25 22:19N 59°32' E 023°10'5314.0
2015-Feb-25 18:34N 59°31' E 021°26'  
Track history (hours):
 
Tides and Currents Weather Stations Pressure Air Temp Water Temp Dewpoint Dewpoint Depression Visibility Wind Speed Wind Dir Waves Ship Positions

Suula

Last reported at 2015-Mar-04 11:33 UTC. Time now 2015-Mar-06 02:50 UTC.
Position N 59°32' E 021°20'.

Length 140 m; draft 6.5 m.

Type: Tanker. MMSI: 230956996.

Date/timePositionNaut miles runAvg speedWind from/ knotsBaromVisibWave heightAir tempDewpointWater temp
2015-Mar-04 11:33N 59°32' E 021°20'5814.4
2015-Mar-04 07:33N 59°38' E 023°13'1414.4
2015-Mar-04 06:33N 59°42' E 023°40'1614.3
2015-Mar-04 05:27N 59°46' E 024°11'1414.5
2015-Mar-04 04:29N 59°49' E 024°38'6 0.1
2015-Mar-02 09:31N 59°46' E 024°48'1313.8
2015-Mar-02 08:33N 59°39' E 024°25'86 3.7
2015-Mar-01 09:29N 59°32' E 021°36'1213.0
2015-Mar-01 08:34N 59°41' E 021°20'1212.0
2015-Mar-01 07:33N 59°52' E 021°29'6 0.1
2015-Feb-27 12:04N 59°55' E 021°38'815.7
2015-Feb-27 11:34N 59°51' E 021°24'1313.0
2015-Feb-27 10:33N 59°38' E 021°26'1313.0
2015-Feb-27 09:33N 59°32' E 021°49'4414.7
2015-Feb-27 06:33N 59°39' E 023°15'1514.7
2015-Feb-27 05:33N 59°42' E 023°43'1814.8
2015-Feb-27 04:20N 59°47' E 024°18'1214.7
2015-Feb-27 03:33N 59°49' E 024°40'35 1.5
2015-Feb-26 04:23N 60°10' E 025°36'1214.1
2015-Feb-26 03:30N 59°58' E 025°28'2714.1
2015-Feb-26 01:33N 59°45' E 024°40'2114.3
2015-Feb-26 00:03N 59°40' E 023°59'814.7
2015-Feb-25 23:32N 59°38' E 023°45'1815.1
2015-Feb-25 22:19N 59°32' E 023°10'5314.0
2015-Feb-25 18:34N 59°31' E 021°26'  

Dump ship's entire track history